Champion, North Carolina
Current Conditions -  °F | °C
As of 2:55 AM on Friday 24 Oct 2014 (Local Time) from KTNB Reporting Station
Clear Clear  
Wind Chill: 39°   Ceiling: Unl
Heat Index: 43°   Visibility: 10mi
Dew Point: 34°   Wind: 6mph
Humidity: 72%   Direction: 290°WNW
Pressure: 30.09"   Gusts: NA
Location:  36.1322°N, 81.415°W
Report Text: KTNB 240655Z AUTO 29005KT 10SM CLR 06/01 A3009 RMK AO2 T00610013
Loading
Personal Weather Stations






























Interactive Weather Map
Tropical Storm Tracking
New forecast layout! Learn more

10-Day Weather Forecast

Advertisements
Track Severe Weather on mobile